createdAt,value
2018-07-04T00:00:40.169Z,0.00
2018-07-04T00:01:40.049Z,0.00
2018-07-04T00:02:39.927Z,0.00
2018-07-04T00:03:39.802Z,0.00
2018-07-04T00:04:39.679Z,0.00
2018-07-04T00:05:39.555Z,0.00
2018-07-04T00:06:39.429Z,0.00
2018-07-04T00:07:39.309Z,0.00
2018-07-04T00:08:39.182Z,0.00
2018-07-04T00:09:39.059Z,0.00
2018-07-04T00:10:38.936Z,0.00
2018-07-04T00:11:38.811Z,0.00
2018-07-04T00:12:38.690Z,0.00
2018-07-04T00:13:38.563Z,0.00
2018-07-04T00:14:38.441Z,0.00
2018-07-04T00:15:38.318Z,0.00
2018-07-04T00:16:38.194Z,0.00
2018-07-04T00:17:38.072Z,0.00
2018-07-04T00:18:37.945Z,0.00
2018-07-04T00:19:37.823Z,0.00
2018-07-04T00:20:37.703Z,0.00
2018-07-04T00:21:37.589Z,0.00
2018-07-04T00:24:08.948Z,0.00
2018-07-04T00:25:08.760Z,0.00
2018-07-04T00:27:01.480Z,0.00
2018-07-04T00:28:01.296Z,0.00
2018-07-04T00:29:53.992Z,0.00
2018-07-04T00:30:53.832Z,0.00
2018-07-04T00:32:46.555Z,0.00
2018-07-04T00:33:46.369Z,0.00
2018-07-04T00:35:39.051Z,0.00
2018-07-04T00:36:38.908Z,0.00
2018-07-04T00:38:31.627Z,0.00
2018-07-04T00:39:31.443Z,0.00
2018-07-04T00:41:24.174Z,0.00
2018-07-04T00:42:23.987Z,0.00
2018-07-04T00:44:16.707Z,0.00
2018-07-04T00:45:16.533Z,0.00
2018-07-04T00:46:16.405Z,0.00
2018-07-04T00:47:16.284Z,0.00
2018-07-04T00:48:16.160Z,0.00
2018-07-04T00:49:16.036Z,0.00
2018-07-04T00:50:15.910Z,0.00
2018-07-04T00:51:15.789Z,0.00
2018-07-04T00:52:15.663Z,0.00
2018-07-04T00:53:15.540Z,0.00
2018-07-04T00:54:15.418Z,0.00
2018-07-04T00:55:15.296Z,0.00
2018-07-04T00:56:15.169Z,0.00
2018-07-04T00:57:15.045Z,0.00
2018-07-04T00:58:14.919Z,0.00
2018-07-04T00:59:14.796Z,0.00
2018-07-04T01:00:14.673Z,0.00
2018-07-04T01:01:14.551Z,0.00
2018-07-04T01:02:14.424Z,0.00
2018-07-04T01:03:14.304Z,0.00
2018-07-04T01:04:14.179Z,0.00
2018-07-04T01:05:14.110Z,0.00
2018-07-04T01:06:13.942Z,0.00
2018-07-04T01:07:13.811Z,0.00
2018-07-04T01:08:13.687Z,0.00
2018-07-04T01:09:13.567Z,0.00
2018-07-04T01:10:13.439Z,0.00
2018-07-04T01:11:13.316Z,0.00
2018-07-04T01:12:13.192Z,0.00
2018-07-04T01:13:13.070Z,0.00
2018-07-04T01:14:12.945Z,0.00
2018-07-04T01:15:12.822Z,0.00
2018-07-04T01:16:12.710Z,0.00
2018-07-04T01:17:12.576Z,0.00
2018-07-04T01:18:12.452Z,0.00
2018-07-04T01:19:12.329Z,0.00
2018-07-04T01:20:12.205Z,0.00
2018-07-04T01:21:12.081Z,0.00
2018-07-04T01:22:11.957Z,0.00
2018-07-04T01:23:11.834Z,0.00
2018-07-04T01:24:11.711Z,0.00
2018-07-04T01:25:11.589Z,0.00
2018-07-04T01:26:11.464Z,0.00
2018-07-04T01:27:11.341Z,0.00
2018-07-04T01:28:11.216Z,0.00
2018-07-04T01:29:11.093Z,0.00
2018-07-04T01:30:10.970Z,0.00
2018-07-04T01:31:10.849Z,0.00
2018-07-04T01:32:10.726Z,0.00
2018-07-04T01:33:10.602Z,0.00
2018-07-04T01:34:10.483Z,0.00
2018-07-04T01:35:10.354Z,0.00
2018-07-04T01:36:10.228Z,0.00
2018-07-04T01:37:10.107Z,0.00
2018-07-04T01:38:09.981Z,0.00
2018-07-04T01:39:09.859Z,0.00
2018-07-04T01:40:09.734Z,0.00
2018-07-04T01:41:09.611Z,0.00
2018-07-04T01:42:09.493Z,0.00
2018-07-04T01:43:09.364Z,0.00
2018-07-04T01:44:09.237Z,0.00
2018-07-04T01:45:09.118Z,0.00
2018-07-04T01:46:08.990Z,0.00
2018-07-04T01:47:08.866Z,0.00
2018-07-04T01:48:08.751Z,0.00
2018-07-04T01:49:08.621Z,0.00
2018-07-04T01:50:08.497Z,0.00
2018-07-04T01:51:08.372Z,0.00
2018-07-04T01:52:08.249Z,0.00
2018-07-04T01:53:08.125Z,0.00
2018-07-04T01:54:08.001Z,0.00
2018-07-04T01:55:07.879Z,0.00
2018-07-04T01:56:07.755Z,0.00
2018-07-04T01:57:07.634Z,0.00
2018-07-04T01:58:07.507Z,0.00
2018-07-04T01:59:07.384Z,0.00
2018-07-04T02:00:07.261Z,0.00
2018-07-04T02:01:07.135Z,0.00
2018-07-04T02:02:07.016Z,0.00
2018-07-04T02:03:06.885Z,0.00
2018-07-04T02:04:06.775Z,0.00
2018-07-04T02:05:06.642Z,0.00
2018-07-04T02:06:06.516Z,0.00
2018-07-04T02:07:06.390Z,0.00
2018-07-04T02:08:06.271Z,0.00
2018-07-04T02:09:06.143Z,0.00
2018-07-04T02:10:06.019Z,0.00
2018-07-04T02:11:05.895Z,0.00
2018-07-04T02:12:05.770Z,0.00
2018-07-04T02:13:05.652Z,0.00
2018-07-04T02:14:05.528Z,0.00
2018-07-04T02:15:05.400Z,0.00
2018-07-04T02:16:05.275Z,0.00
2018-07-04T02:17:05.155Z,0.00
2018-07-04T02:18:05.031Z,0.00
2018-07-04T02:19:04.904Z,0.00
2018-07-04T02:20:04.780Z,0.00
2018-07-04T02:21:04.659Z,0.00
2018-07-04T02:22:04.533Z,0.00
2018-07-04T02:23:04.408Z,0.00
2018-07-04T02:24:04.285Z,0.00
2018-07-04T02:25:04.159Z,0.00
2018-07-04T02:26:04.036Z,0.00
2018-07-04T02:27:03.914Z,0.00
2018-07-04T02:28:03.787Z,0.00
2018-07-04T02:29:03.664Z,0.00
2018-07-04T02:30:03.540Z,0.00
2018-07-04T02:31:03.413Z,0.00
2018-07-04T02:32:03.289Z,0.00
2018-07-04T02:33:03.167Z,0.00
2018-07-04T02:34:03.042Z,0.00
2018-07-04T02:35:02.916Z,0.00
2018-07-04T02:36:02.795Z,0.00
2018-07-04T02:37:02.673Z,0.00
2018-07-04T02:38:02.557Z,0.00
2018-07-04T02:39:02.422Z,0.00
2018-07-04T02:40:02.299Z,0.00
2018-07-04T02:41:02.176Z,0.00
2018-07-04T02:42:02.048Z,0.00
2018-07-04T02:43:01.925Z,0.00
2018-07-04T02:44:01.806Z,0.00
2018-07-04T02:45:01.751Z,0.00
2018-07-04T02:46:01.553Z,0.00
2018-07-04T02:47:01.435Z,0.00
2018-07-04T02:48:01.308Z,0.00
2018-07-04T02:49:01.185Z,0.00
2018-07-04T02:50:01.059Z,0.00
2018-07-04T02:51:00.932Z,0.00
2018-07-04T02:52:00.814Z,0.00
2018-07-04T02:53:00.688Z,0.00
2018-07-04T02:54:00.561Z,0.00
2018-07-04T02:55:00.436Z,0.00
2018-07-04T02:56:00.313Z,0.00
2018-07-04T02:57:00.189Z,0.00
2018-07-04T02:58:00.064Z,0.00
2018-07-04T02:58:59.940Z,0.00
2018-07-04T02:59:59.818Z,0.00
2018-07-04T03:00:59.693Z,0.00
2018-07-04T03:01:59.573Z,0.00
2018-07-04T03:02:59.443Z,0.00
2018-07-04T03:03:59.322Z,0.00
2018-07-04T03:04:59.194Z,0.00
2018-07-04T03:05:59.077Z,0.00
2018-07-04T03:06:58.947Z,0.00
2018-07-04T03:07:58.823Z,0.00
2018-07-04T03:08:58.699Z,4.00
2018-07-04T03:09:58.574Z,4.00
2018-07-04T03:10:58.451Z,4.00
2018-07-04T03:11:58.327Z,4.00
2018-07-04T03:12:58.203Z,4.00
2018-07-04T03:13:58.079Z,8.00
2018-07-04T03:14:57.955Z,4.00
2018-07-04T03:15:57.835Z,8.00
2018-07-04T03:16:57.708Z,8.00
2018-07-04T03:17:57.580Z,8.00
2018-07-04T03:18:57.461Z,8.00
2018-07-04T03:19:57.337Z,12.00
2018-07-04T03:20:57.215Z,12.00
2018-07-04T03:21:57.093Z,16.00
2018-07-04T03:22:56.962Z,16.00
2018-07-04T03:23:56.852Z,20.00
2018-07-04T03:24:56.719Z,20.00
2018-07-04T03:25:56.591Z,20.00
2018-07-04T03:26:56.467Z,24.00
2018-07-04T03:27:56.343Z,28.00
2018-07-04T03:28:56.220Z,28.00
2018-07-04T03:29:56.094Z,36.00
2018-07-04T03:30:55.970Z,40.00
2018-07-04T03:31:55.850Z,40.00
2018-07-04T03:32:55.778Z,44.00
2018-07-04T03:33:55.597Z,44.00
2018-07-04T03:34:55.476Z,52.00
2018-07-04T03:35:55.362Z,56.00
2018-07-04T03:36:55.226Z,60.00
2018-07-04T03:37:55.101Z,60.00
2018-07-04T03:38:54.976Z,64.00
2018-07-04T03:39:54.852Z,68.00
2018-07-04T03:40:54.729Z,76.00
2018-07-04T03:41:54.606Z,80.00
2018-07-04T03:42:54.479Z,80.00
2018-07-04T03:43:54.354Z,84.00
2018-07-04T03:44:54.231Z,92.00
2018-07-04T03:45:54.108Z,96.00
2018-07-04T03:46:53.985Z,100.00
2018-07-04T03:47:53.862Z,104.00
2018-07-04T03:48:53.734Z,112.00
2018-07-04T03:49:53.615Z,112.00
2018-07-04T03:50:53.484Z,120.00
2018-07-04T03:51:53.363Z,124.00
2018-07-04T03:52:53.238Z,128.00
2018-07-04T03:53:53.112Z,136.00
2018-07-04T03:54:52.992Z,140.00
2018-07-04T03:55:52.865Z,148.00
2018-07-04T03:56:52.740Z,156.00
2018-07-04T03:57:52.618Z,160.00
2018-07-04T03:58:52.491Z,168.00
2018-07-04T03:59:52.368Z,172.00
2018-07-04T04:00:52.244Z,176.00
2018-07-04T04:01:52.120Z,184.00
2018-07-04T04:02:51.996Z,192.00
2018-07-04T04:03:51.871Z,200.00
2018-07-04T04:04:51.747Z,204.00
2018-07-04T04:05:51.624Z,212.00
2018-07-04T04:06:51.498Z,220.00
2018-07-04T04:07:51.374Z,224.00
2018-07-04T04:08:51.250Z,232.00
2018-07-04T04:09:51.125Z,244.00
2018-07-04T04:10:51.008Z,256.00
2018-07-04T04:11:50.877Z,260.00
2018-07-04T04:12:50.759Z,268.00
2018-07-04T04:13:50.631Z,272.00
2018-07-04T04:14:50.506Z,276.00
2018-07-04T04:15:50.382Z,280.00
2018-07-04T04:16:50.255Z,284.00
2018-07-04T04:17:50.136Z,288.00
2018-07-04T04:18:50.008Z,304.00
2018-07-04T04:19:49.926Z,312.00
2018-07-04T04:20:49.759Z,328.00
2018-07-04T04:21:49.636Z,332.00
2018-07-04T04:22:49.509Z,344.00
2018-07-04T04:23:49.389Z,348.00
2018-07-04T04:24:49.262Z,360.00
2018-07-04T04:25:49.758Z,372.00
2018-07-04T04:26:49.016Z,376.00
2018-07-04T04:27:48.889Z,384.00
2018-07-04T04:28:48.765Z,392.00
2018-07-04T04:29:48.641Z,392.00
2018-07-04T04:30:48.523Z,408.00
2018-07-04T04:31:48.394Z,424.00
2018-07-04T04:32:48.271Z,492.00
2018-07-04T04:33:48.188Z,540.00
2018-07-04T04:34:48.022Z,560.00
2018-07-04T04:35:47.900Z,540.00
2018-07-04T04:36:47.774Z,548.00
2018-07-04T04:37:47.650Z,548.00
2018-07-04T04:38:47.528Z,544.00
2018-07-04T04:39:47.403Z,544.00
2018-07-04T04:40:47.280Z,564.00
2018-07-04T04:41:47.155Z,608.00
2018-07-04T04:42:47.032Z,648.00
2018-07-04T04:43:46.906Z,680.00
2018-07-04T04:44:46.785Z,728.00
2018-07-04T04:45:46.663Z,756.00
2018-07-04T04:46:46.534Z,704.00
2018-07-04T04:47:46.412Z,784.00
2018-07-04T04:48:46.288Z,788.00
2018-07-04T04:49:46.165Z,828.00
2018-07-04T04:50:46.042Z,848.00
2018-07-04T04:51:45.922Z,840.00
2018-07-04T04:52:45.798Z,852.00
2018-07-04T04:53:46.341Z,916.00
2018-07-04T04:54:45.552Z,928.00
2018-07-04T04:55:45.425Z,1008.00
2018-07-04T04:56:45.300Z,1000.00
2018-07-04T04:57:45.181Z,1104.00
2018-07-04T04:58:45.055Z,1172.00
2018-07-04T04:59:44.932Z,1188.00
2018-07-04T05:00:44.806Z,1040.00
2018-07-04T05:01:44.682Z,1228.00
2018-07-04T05:02:44.564Z,1156.00
2018-07-04T05:03:44.436Z,1180.00
2018-07-04T05:04:44.313Z,1180.00
2018-07-04T05:05:44.189Z,1136.00
2018-07-04T05:06:44.067Z,1064.00
2018-07-04T05:07:43.945Z,912.00
2018-07-04T05:08:43.821Z,924.00
2018-07-04T05:09:43.698Z,912.00
2018-07-04T05:10:43.574Z,880.00
2018-07-04T05:11:43.450Z,860.00
2018-07-04T05:12:43.330Z,840.00
2018-07-04T05:13:43.206Z,820.00
2018-07-04T05:14:43.086Z,804.00
2018-07-04T05:15:42.980Z,796.00
2018-07-04T05:16:42.840Z,804.00
2018-07-04T05:17:42.716Z,768.00
2018-07-04T05:18:42.593Z,772.00
2018-07-04T05:19:42.473Z,656.00
2018-07-04T05:20:42.349Z,592.00
2018-07-04T05:21:42.230Z,776.00
2018-07-04T05:22:42.159Z,888.00
2018-07-04T05:23:41.983Z,888.00
2018-07-04T05:24:41.869Z,888.00
2018-07-04T05:25:41.738Z,888.00
2018-07-04T05:26:41.617Z,892.00
2018-07-04T05:27:41.504Z,900.00
2018-07-04T05:28:41.373Z,900.00
2018-07-04T05:29:41.248Z,904.00
2018-07-04T05:30:41.125Z,916.00
2018-07-04T05:31:41.003Z,936.00
2018-07-04T05:32:40.880Z,952.00
2018-07-04T05:33:40.760Z,996.00
2018-07-04T05:34:40.638Z,992.00
2018-07-04T05:35:40.514Z,1012.00
2018-07-04T05:36:40.393Z,1068.00
2018-07-04T05:37:40.271Z,1124.00
2018-07-04T05:38:40.150Z,1196.00
2018-07-04T05:39:40.026Z,1352.00
2018-07-04T05:40:39.907Z,1452.00
2018-07-04T05:41:39.780Z,1548.00
2018-07-04T05:42:39.666Z,1664.00
2018-07-04T05:43:39.536Z,1736.00
2018-07-04T05:44:39.414Z,1756.00
2018-07-04T05:45:39.292Z,1688.00
2018-07-04T05:46:39.170Z,1572.00
2018-07-04T05:47:39.078Z,1484.00
2018-07-04T05:48:38.926Z,1528.00
2018-07-04T05:49:38.815Z,1540.00
2018-07-04T05:50:38.683Z,1588.00
2018-07-04T05:51:38.563Z,1616.00
2018-07-04T05:52:38.439Z,1676.00
2018-07-04T05:53:38.318Z,1712.00
2018-07-04T05:54:38.196Z,1704.00
2018-07-04T05:55:38.073Z,1704.00
2018-07-04T05:56:37.954Z,1732.00
2018-07-04T05:57:37.830Z,1748.00
2018-07-04T05:58:37.711Z,1800.00
2018-07-04T05:59:37.690Z,1916.00
2018-07-04T06:00:37.466Z,1888.00
2018-07-04T06:01:37.341Z,1812.00
2018-07-04T06:02:37.225Z,1728.00
2018-07-04T06:03:37.101Z,1656.00
2018-07-04T06:04:36.982Z,1644.00
2018-07-04T06:05:36.856Z,1600.00
2018-07-04T06:06:36.735Z,1556.00
2018-07-04T06:07:36.613Z,1412.00
2018-07-04T06:08:36.497Z,1136.00
2018-07-04T06:09:36.370Z,1120.00
2018-07-04T06:10:36.251Z,1200.00
2018-07-04T06:11:36.129Z,1344.00
2018-07-04T06:12:36.010Z,1424.00
2018-07-04T06:13:35.887Z,1516.00
2018-07-04T06:14:35.767Z,1508.00
2018-07-04T06:15:35.649Z,1284.00
2018-07-04T06:16:35.524Z,1648.00
2018-07-04T06:17:35.473Z,1692.00
2018-07-04T06:18:35.281Z,1636.00
2018-07-04T06:19:35.159Z,1556.00
2018-07-04T06:20:35.039Z,1528.00
2018-07-04T06:21:34.919Z,1508.00
2018-07-04T06:22:34.796Z,1460.00
2018-07-04T06:23:34.674Z,1488.00
2018-07-04T06:24:34.555Z,1488.00
2018-07-04T06:25:34.432Z,1448.00
2018-07-04T06:26:34.312Z,1384.00
2018-07-04T06:27:34.192Z,1268.00
2018-07-04T06:28:34.070Z,1332.00
2018-07-04T06:29:33.947Z,1300.00
2018-07-04T06:30:33.826Z,1328.00
2018-07-04T06:31:33.706Z,1372.00
2018-07-04T06:32:33.586Z,1404.00
2018-07-04T06:33:33.466Z,1416.00
2018-07-04T06:34:33.345Z,1412.00
2018-07-04T06:35:33.222Z,1308.00
2018-07-04T06:36:33.103Z,1380.00
2018-07-04T06:37:32.979Z,1376.00
2018-07-04T06:38:32.861Z,1408.00
2018-07-04T06:39:32.740Z,1412.00
2018-07-04T06:40:32.618Z,1440.00
2018-07-04T06:41:32.497Z,1564.00
2018-07-04T06:42:32.376Z,1616.00
2018-07-04T06:43:32.259Z,1592.00
2018-07-04T06:44:32.139Z,1408.00
2018-07-04T06:45:32.014Z,1204.00
2018-07-04T06:46:31.894Z,1168.00
2018-07-04T06:47:31.775Z,1448.00
2018-07-04T06:48:31.654Z,1828.00
2018-07-04T06:49:31.534Z,1884.00
2018-07-04T06:50:31.413Z,1636.00
2018-07-04T06:51:31.294Z,1508.00
2018-07-04T06:52:31.172Z,1400.00
2018-07-04T06:53:31.051Z,1492.00
2018-07-04T06:54:30.983Z,1732.00
2018-07-04T06:55:30.811Z,1872.00
2018-07-04T06:56:30.689Z,1844.00
2018-07-04T06:57:30.571Z,1696.00
2018-07-04T06:58:30.452Z,1680.00
2018-07-04T06:59:30.343Z,1544.00
2018-07-04T07:00:30.211Z,1496.00
2018-07-04T07:01:30.088Z,1492.00
2018-07-04T07:02:29.971Z,1388.00
2018-07-04T07:03:29.852Z,1176.00
2018-07-04T07:04:29.727Z,1248.00
2018-07-04T07:05:29.606Z,1260.00
2018-07-04T07:06:29.490Z,1256.00
2018-07-04T07:07:29.365Z,1280.00
2018-07-04T07:08:29.300Z,1352.00
2018-07-04T07:09:29.132Z,1460.00
2018-07-04T07:10:29.007Z,1524.00
2018-07-04T07:11:28.889Z,1036.00
2018-07-04T07:12:28.768Z,1132.00
2018-07-04T07:13:28.644Z,1008.00
2018-07-04T07:14:28.599Z,928.00
2018-07-04T07:15:28.407Z,896.00
2018-07-04T07:16:28.290Z,892.00
2018-07-04T07:17:28.166Z,912.00
2018-07-04T07:18:28.046Z,1184.00
2018-07-04T07:19:27.930Z,1228.00
2018-07-04T07:20:27.811Z,1104.00
2018-07-04T07:21:27.689Z,928.00
2018-07-04T07:22:27.569Z,972.00
2018-07-04T07:23:27.447Z,1016.00
2018-07-04T07:24:27.328Z,1040.00
2018-07-04T07:25:27.207Z,1024.00
2018-07-04T07:26:27.090Z,1232.00
2018-07-04T07:27:26.996Z,1252.00
2018-07-04T07:28:26.849Z,1004.00
2018-07-04T07:29:26.726Z,1080.00
2018-07-04T07:30:26.610Z,1224.00
2018-07-04T07:31:26.489Z,1904.00
2018-07-04T07:32:26.368Z,1888.00
2018-07-04T07:33:26.261Z,1580.00
2018-07-04T07:34:26.300Z,1748.00
2018-07-04T07:35:26.011Z,1816.00
2018-07-04T07:36:25.886Z,1796.00
2018-07-04T07:37:25.768Z,1988.00
2018-07-04T07:38:25.648Z,2212.00
2018-07-04T07:39:25.529Z,2492.00
2018-07-04T07:40:25.404Z,2572.00
2018-07-04T07:41:25.285Z,3252.00
2018-07-04T07:42:25.168Z,3460.00
2018-07-04T07:43:25.048Z,3868.00
2018-07-04T07:44:24.946Z,4088.00
2018-07-04T07:45:24.809Z,4328.00
2018-07-04T07:46:24.687Z,4492.00
2018-07-04T07:47:24.564Z,4748.00
2018-07-04T07:48:24.444Z,4860.00
2018-07-04T07:49:24.326Z,5148.00
2018-07-04T07:50:24.205Z,5144.00
2018-07-04T07:51:24.086Z,5004.00
2018-07-04T07:52:23.969Z,4752.00
2018-07-04T07:53:23.850Z,4144.00
2018-07-04T07:54:23.758Z,3836.00
2018-07-04T07:55:23.609Z,3852.00
2018-07-04T07:56:23.491Z,3640.00
2018-07-04T07:57:23.372Z,3436.00
2018-07-04T07:58:23.252Z,3252.00
2018-07-04T07:59:23.132Z,3204.00
2018-07-04T08:00:23.018Z,3232.00
2018-07-04T08:01:22.894Z,3276.00
2018-07-04T08:02:22.812Z,3608.00
2018-07-04T08:03:22.659Z,4020.00
2018-07-04T08:04:22.539Z,4284.00
2018-07-04T08:05:24.377Z,4304.00
2018-07-04T08:06:22.304Z,3996.00
2018-07-04T08:07:22.187Z,3764.00
2018-07-04T08:08:22.064Z,3580.00
2018-07-04T08:09:21.955Z,3616.00
2018-07-04T08:10:21.828Z,3292.00
2018-07-04T08:11:21.715Z,2732.00
2018-07-04T08:12:21.591Z,2496.00
2018-07-04T08:13:21.472Z,2560.00
2018-07-04T08:14:21.358Z,2708.00
2018-07-04T08:15:21.233Z,3124.00
2018-07-04T08:16:21.121Z,3328.00
2018-07-04T08:17:20.998Z,3136.00
2018-07-04T08:18:20.883Z,2976.00
2018-07-04T08:19:20.763Z,2888.00
2018-07-04T08:20:20.644Z,3044.00
2018-07-04T08:21:20.523Z,3188.00
2018-07-04T08:22:20.404Z,3192.00
2018-07-04T08:23:20.289Z,3176.00
2018-07-04T08:24:20.172Z,3080.00
2018-07-04T08:25:20.053Z,2852.00
2018-07-04T08:26:19.948Z,2916.00
2018-07-04T08:27:19.818Z,2788.00
2018-07-04T08:28:19.700Z,2636.00
2018-07-04T08:29:19.579Z,2176.00
2018-07-04T08:30:19.460Z,1984.00
2018-07-04T08:31:19.341Z,1844.00
2018-07-04T08:32:19.225Z,1792.00
2018-07-04T08:33:19.105Z,1712.00
2018-07-04T08:34:18.987Z,1680.00
2018-07-04T08:35:18.872Z,1760.00
2018-07-04T08:36:18.755Z,1724.00
2018-07-04T08:37:18.635Z,1752.00
2018-07-04T08:38:18.520Z,1800.00
2018-07-04T08:39:18.407Z,1864.00
2018-07-04T08:40:18.283Z,1936.00
2018-07-04T08:41:18.167Z,2088.00
2018-07-04T08:42:18.045Z,2340.00
2018-07-04T08:43:17.927Z,2648.00
2018-07-04T08:44:17.809Z,3052.00
2018-07-04T08:45:17.691Z,3516.00
2018-07-04T08:46:17.572Z,4108.00
2018-07-04T08:47:17.457Z,4528.00
2018-07-04T08:48:17.338Z,4960.00
2018-07-04T08:49:17.215Z,5348.00
2018-07-04T08:50:17.098Z,5912.00
2018-07-04T08:51:17.236Z,6320.00
2018-07-04T08:52:16.862Z,6056.00
2018-07-04T08:53:16.744Z,5784.00
2018-07-04T08:54:16.625Z,5588.00
2018-07-04T08:55:16.506Z,5476.00
2018-07-04T08:56:16.390Z,5236.00
2018-07-04T08:57:16.273Z,4836.00
2018-07-04T08:58:16.197Z,4348.00
2018-07-04T08:59:16.034Z,4220.00
2018-07-04T09:00:15.917Z,4084.00
2018-07-04T09:01:15.801Z,3760.00
2018-07-04T09:02:15.684Z,3144.00
2018-07-04T09:03:15.565Z,3140.00
2018-07-04T09:04:15.448Z,2916.00
2018-07-04T09:05:15.327Z,2696.00
2018-07-04T09:06:15.212Z,2512.00
2018-07-04T09:07:15.093Z,1920.00
2018-07-04T09:08:14.975Z,1788.00
2018-07-04T09:09:14.859Z,1728.00
2018-07-04T09:10:14.743Z,1716.00
2018-07-04T09:11:14.634Z,1728.00
2018-07-04T09:12:14.506Z,1692.00
2018-07-04T09:13:14.390Z,1676.00
2018-07-04T09:14:14.271Z,1720.00
2018-07-04T09:15:14.199Z,1856.00
2018-07-04T09:16:14.038Z,2000.00
2018-07-04T09:17:13.951Z,2140.00
2018-07-04T09:18:13.811Z,2264.00
2018-07-04T09:19:13.689Z,2372.00
2018-07-04T09:20:13.564Z,2388.00
2018-07-04T09:21:13.445Z,2524.00
2018-07-04T09:22:13.329Z,2664.00
2018-07-04T09:23:13.209Z,2844.00
2018-07-04T09:24:13.095Z,2964.00
2018-07-04T09:25:12.973Z,3012.00
2018-07-04T09:26:12.857Z,3060.00
2018-07-04T09:27:12.742Z,3148.00
2018-07-04T09:28:12.622Z,3108.00
2018-07-04T09:29:12.501Z,3032.00
2018-07-04T09:30:12.385Z,2944.00
2018-07-04T09:31:12.267Z,2852.00
2018-07-04T09:32:12.150Z,2808.00
2018-07-04T09:33:12.034Z,2648.00
2018-07-04T09:34:11.916Z,2528.00
2018-07-04T09:35:11.797Z,2444.00
2018-07-04T09:36:11.686Z,2496.00
2018-07-04T09:37:11.560Z,2652.00
2018-07-04T09:38:11.443Z,2940.00
2018-07-04T09:39:11.323Z,3468.00
2018-07-04T09:40:11.205Z,4168.00
2018-07-04T09:41:11.089Z,4424.00
2018-07-04T09:42:10.969Z,4560.00
2018-07-04T09:43:10.856Z,5432.00
2018-07-04T09:44:10.735Z,5912.00
2018-07-04T09:45:10.616Z,6308.00
2018-07-04T09:46:10.504Z,6520.00
2018-07-04T09:47:10.380Z,6504.00
2018-07-04T09:48:10.264Z,6268.00
2018-07-04T09:49:10.144Z,6056.00
2018-07-04T09:50:10.027Z,5792.00
2018-07-04T09:51:09.911Z,5304.00
2018-07-04T09:52:09.824Z,4808.00
2018-07-04T09:53:09.675Z,4808.00
2018-07-04T09:54:09.558Z,5108.00
2018-07-04T09:55:09.447Z,5268.00
2018-07-04T09:56:09.328Z,5040.00
2018-07-04T09:57:09.209Z,4340.00
2018-07-04T09:58:09.093Z,3880.00
2018-07-04T09:59:08.975Z,3896.00
2018-07-04T10:00:08.859Z,3448.00
2018-07-04T10:01:08.739Z,3032.00
2018-07-04T10:02:08.623Z,2880.00
2018-07-04T10:03:08.508Z,2856.00
2018-07-04T10:04:08.391Z,2968.00
2018-07-04T10:05:08.276Z,3216.00
2018-07-04T10:06:08.158Z,3184.00
2018-07-04T10:07:08.045Z,3188.00
2018-07-04T10:08:07.927Z,3192.00
2018-07-04T10:09:07.809Z,3312.00
2018-07-04T10:10:07.690Z,3496.00
2018-07-04T10:11:07.574Z,3748.00
2018-07-04T10:12:07.458Z,3840.00
2018-07-04T10:13:07.343Z,3964.00
2018-07-04T10:14:07.223Z,4180.00
2018-07-04T10:15:07.112Z,4492.00
2018-07-04T10:16:06.994Z,4968.00
2018-07-04T10:17:06.877Z,5440.00
2018-07-04T10:18:06.759Z,6108.00
2018-07-04T10:19:06.648Z,6760.00
2018-07-04T10:20:06.531Z,6820.00
2018-07-04T10:21:06.414Z,6908.00
2018-07-04T10:22:06.295Z,6788.00
2018-07-04T10:23:06.181Z,6576.00
2018-07-04T10:24:06.066Z,6492.00
2018-07-04T10:25:05.951Z,6900.00
2018-07-04T10:26:05.832Z,6080.00
2018-07-04T10:27:05.717Z,5920.00
2018-07-04T10:28:05.600Z,5800.00
2018-07-04T10:29:05.487Z,5760.00
2018-07-04T10:30:05.370Z,4704.00
2018-07-04T10:31:05.255Z,4176.00
2018-07-04T10:32:05.144Z,4084.00
2018-07-04T10:33:05.024Z,3436.00
2018-07-04T10:34:04.910Z,3180.00
2018-07-04T10:35:04.791Z,2972.00
2018-07-04T10:36:04.678Z,2972.00
2018-07-04T10:37:04.562Z,2892.00
2018-07-04T10:38:04.444Z,2820.00
2018-07-04T10:39:04.329Z,2772.00
2018-07-04T10:40:04.213Z,2772.00
2018-07-04T10:41:04.096Z,2904.00
2018-07-04T10:42:03.994Z,2992.00
2018-07-04T10:43:03.865Z,2884.00
2018-07-04T10:44:03.754Z,2664.00
2018-07-04T10:45:03.637Z,2596.00
2018-07-04T10:46:03.516Z,2564.00
2018-07-04T10:47:03.399Z,2588.00
2018-07-04T10:48:03.284Z,2656.00
2018-07-04T10:49:03.166Z,2840.00
2018-07-04T10:50:03.050Z,3024.00
2018-07-04T10:51:02.964Z,3164.00
2018-07-04T10:52:02.816Z,3404.00
2018-07-04T10:53:02.698Z,3772.00
2018-07-04T10:54:02.584Z,4296.00
2018-07-04T10:55:05.443Z,4552.00
2018-07-04T10:56:02.352Z,4044.00
2018-07-04T10:57:02.235Z,3536.00
2018-07-04T10:58:02.126Z,3560.00
2018-07-04T10:59:02.004Z,4048.00
2018-07-04T11:00:02.098Z,4712.00
2018-07-04T11:01:01.771Z,4264.00
2018-07-04T11:02:01.665Z,3908.00
2018-07-04T11:03:01.538Z,4008.00
2018-07-04T11:04:01.420Z,3572.00
2018-07-04T11:05:01.609Z,3524.00
2018-07-04T11:06:01.190Z,3844.00
2018-07-04T11:07:01.072Z,4252.00
2018-07-04T11:08:00.957Z,4584.00
2018-07-04T11:09:00.838Z,5040.00
2018-07-04T11:10:00.724Z,5604.00
2018-07-04T11:11:00.608Z,5744.00
2018-07-04T11:12:00.489Z,5568.00
2018-07-04T11:13:00.373Z,5512.00
2018-07-04T11:14:00.257Z,5464.00
2018-07-04T11:15:00.141Z,5656.00
2018-07-04T11:16:00.040Z,6644.00
2018-07-04T11:17:00.024Z,6120.00
2018-07-04T11:18:02.447Z,5680.00
2018-07-04T11:18:59.677Z,4908.00
2018-07-04T11:19:59.935Z,4692.00
2018-07-04T11:20:59.445Z,4628.00
2018-07-04T11:21:59.330Z,4272.00
2018-07-04T11:22:59.215Z,4068.00
2018-07-04T11:23:59.098Z,3680.00
2018-07-04T11:24:58.984Z,2388.00
2018-07-04T11:25:58.869Z,2136.00
2018-07-04T11:26:58.754Z,1832.00
2018-07-04T11:27:58.636Z,1572.00
2018-07-04T11:28:58.523Z,1328.00
2018-07-04T11:29:58.404Z,1152.00
2018-07-04T11:30:58.289Z,1076.00
2018-07-04T11:31:58.174Z,1020.00
2018-07-04T11:32:58.056Z,984.00
2018-07-04T11:33:57.944Z,960.00
2018-07-04T11:34:57.825Z,932.00
2018-07-04T11:35:57.712Z,880.00
2018-07-04T11:36:57.600Z,856.00
2018-07-04T11:37:57.480Z,884.00
2018-07-04T11:38:57.364Z,956.00
2018-07-04T11:39:57.248Z,1016.00
2018-07-04T11:40:57.129Z,1092.00
2018-07-04T11:41:57.012Z,1160.00
2018-07-04T11:42:56.896Z,1372.00
2018-07-04T11:43:56.780Z,1648.00
2018-07-04T11:44:56.662Z,2060.00
2018-07-04T11:45:56.547Z,2788.00
2018-07-04T11:46:56.430Z,4000.00
2018-07-04T11:47:56.311Z,5648.00
2018-07-04T11:48:56.197Z,7036.00
2018-07-04T11:49:56.075Z,8680.00
2018-07-04T11:50:55.962Z,10364.00
2018-07-04T11:51:55.840Z,10916.00
2018-07-04T11:52:55.721Z,11440.00
2018-07-04T11:53:55.601Z,12044.00
2018-07-04T11:54:55.484Z,10752.00
2018-07-04T11:55:55.363Z,9144.00
2018-07-04T11:56:55.288Z,7176.00
2018-07-04T11:57:55.694Z,7440.00
2018-07-04T11:58:55.007Z,7692.00
2018-07-04T11:59:54.938Z,7212.00
2018-07-04T12:00:54.909Z,8244.00
2018-07-04T12:01:55.021Z,8920.00
2018-07-04T12:02:54.532Z,9956.00
2018-07-04T12:04:02.513Z,8848.00
2018-07-04T12:06:02.617Z,10108.00
2018-07-04T12:07:02.867Z,10012.00
2018-07-04T12:08:55.109Z,10344.00
2018-07-04T12:09:55.035Z,9904.00
2018-07-04T12:11:47.737Z,10872.00
2018-07-04T12:12:47.249Z,11072.00
2018-07-04T12:14:40.181Z,9460.00
2018-07-04T12:15:40.014Z,8924.00
2018-07-04T12:17:32.800Z,6672.00
2018-07-04T12:18:32.331Z,6084.00
2018-07-04T12:20:25.344Z,6720.00
2018-07-04T12:21:24.868Z,8356.00
2018-07-04T12:23:17.606Z,9208.00
2018-07-04T12:24:17.435Z,9300.00
2018-07-04T12:26:10.614Z,7952.00
2018-07-04T12:27:10.359Z,7484.00
2018-07-04T12:29:02.977Z,8344.00
2018-07-04T12:30:02.547Z,7552.00
2018-07-04T12:31:57.299Z,6284.00
2018-07-04T12:32:57.466Z,5684.00
2018-07-04T12:34:50.163Z,5716.00
2018-07-04T12:35:49.354Z,6124.00
2018-07-04T12:37:42.342Z,10820.00
2018-07-04T12:38:41.910Z,11492.00
2018-07-04T12:40:36.421Z,11816.00
2018-07-04T12:41:34.485Z,12388.00
2018-07-04T12:43:27.190Z,10396.00
2018-07-04T12:44:34.542Z,9012.00
2018-07-04T12:46:32.843Z,8516.00
2018-07-04T12:47:32.307Z,9524.00